createdAt,value
2023-05-17T00:00:31.316Z,79.99
2023-05-17T00:01:31.312Z,80.31
2023-05-17T00:02:31.303Z,80.03
2023-05-17T00:03:31.317Z,80.13
2023-05-17T00:04:31.341Z,80.02
2023-05-17T00:05:31.256Z,79.89
2023-05-17T00:06:31.255Z,80.30
2023-05-17T00:07:31.224Z,80.39
2023-05-17T00:08:31.213Z,80.09
2023-05-17T00:09:31.214Z,79.38
2023-05-17T00:10:31.208Z,78.94
2023-05-17T00:11:31.193Z,79.16
2023-05-17T00:12:31.170Z,79.71
2023-05-17T00:13:31.163Z,79.93
2023-05-17T00:14:31.156Z,79.58
2023-05-17T00:15:31.126Z,79.53
2023-05-17T00:16:31.143Z,79.41
2023-05-17T00:17:31.197Z,79.25
2023-05-17T00:18:31.151Z,79.15
2023-05-17T00:19:31.132Z,79.30
2023-05-17T00:20:31.054Z,79.15
2023-05-17T00:21:31.117Z,78.60
2023-05-17T00:22:31.036Z,78.13
2023-05-17T00:23:31.024Z,78.37
2023-05-17T00:24:31.048Z,78.58
2023-05-17T00:25:31.241Z,78.32
2023-05-17T00:26:30.982Z,78.15
2023-05-17T00:27:30.978Z,78.18
2023-05-17T00:28:31.010Z,78.39
2023-05-17T00:29:30.966Z,78.77
2023-05-17T00:30:30.953Z,78.49
2023-05-17T00:31:30.935Z,78.06
2023-05-17T00:32:31.005Z,78.18
2023-05-17T00:33:30.911Z,78.02
2023-05-17T00:34:30.903Z,78.22
2023-05-17T00:35:31.019Z,78.06
2023-05-17T00:36:30.910Z,77.80
2023-05-17T00:37:30.878Z,77.64
2023-05-17T00:38:30.846Z,77.59
2023-05-17T00:39:30.869Z,77.30
2023-05-17T00:40:30.837Z,77.42
2023-05-17T00:41:30.822Z,77.56
2023-05-17T00:42:30.812Z,77.65
2023-05-17T00:43:30.786Z,77.89
2023-05-17T00:44:30.777Z,77.84
2023-05-17T00:45:30.754Z,77.77
2023-05-17T00:46:30.756Z,77.28
2023-05-17T00:47:30.783Z,77.28
2023-05-17T00:48:30.970Z,77.28
2023-05-17T00:49:30.711Z,76.85
2023-05-17T00:50:30.716Z,76.96
2023-05-17T00:51:30.696Z,76.98
2023-05-17T00:52:30.688Z,77.33
2023-05-17T00:53:30.674Z,77.31
2023-05-17T00:54:30.663Z,77.13
2023-05-17T00:55:30.821Z,76.97
2023-05-17T00:56:30.622Z,77.10
2023-05-17T00:57:30.637Z,76.93
2023-05-17T00:58:30.598Z,76.70
2023-05-17T00:59:30.579Z,77.05
2023-05-17T01:00:30.595Z,76.95
2023-05-17T01:01:30.567Z,76.86
2023-05-17T01:02:30.617Z,76.49
2023-05-17T01:03:30.652Z,76.91
2023-05-17T01:04:30.560Z,77.05
2023-05-17T01:05:30.700Z,76.99
2023-05-17T01:06:30.498Z,76.36
2023-05-17T01:07:30.490Z,76.64
2023-05-17T01:08:30.475Z,76.05
2023-05-17T01:09:30.482Z,75.83
2023-05-17T01:10:30.475Z,76.02
2023-05-17T01:11:30.457Z,75.96
2023-05-17T01:12:30.436Z,76.01
2023-05-17T01:13:30.409Z,75.94
2023-05-17T01:14:30.404Z,75.85
2023-05-17T01:15:30.511Z,75.41
2023-05-17T01:16:30.397Z,75.79
2023-05-17T01:17:30.424Z,75.67
2023-05-17T01:18:30.484Z,75.33
2023-05-17T01:19:30.524Z,75.29
2023-05-17T01:20:30.407Z,75.54
2023-05-17T01:21:30.333Z,75.76
2023-05-17T01:22:30.313Z,75.21
2023-05-17T01:23:30.294Z,75.48
2023-05-17T01:24:30.280Z,75.26
2023-05-17T01:25:30.471Z,75.51
2023-05-17T01:26:30.272Z,75.94
2023-05-17T01:27:30.242Z,76.09
2023-05-17T01:28:30.245Z,76.07
2023-05-17T01:29:30.214Z,76.01
2023-05-17T01:30:30.233Z,75.97
2023-05-17T01:31:30.193Z,75.76
2023-05-17T01:32:30.254Z,75.99
2023-05-17T01:33:30.313Z,75.87
2023-05-17T01:34:30.177Z,76.04
2023-05-17T01:35:30.282Z,76.25
2023-05-17T01:36:30.155Z,76.17
2023-05-17T01:37:30.124Z,76.17
2023-05-17T01:38:30.141Z,76.13
2023-05-17T01:39:30.112Z,76.16
2023-05-17T01:40:30.087Z,76.16
2023-05-17T01:41:30.094Z,76.19
2023-05-17T01:42:30.078Z,76.10
2023-05-17T01:43:30.059Z,76.20
2023-05-17T01:44:32.977Z,76.09
2023-05-17T01:45:30.250Z,76.14
2023-05-17T01:46:30.027Z,75.96
2023-05-17T01:47:30.046Z,76.29
2023-05-17T01:48:30.050Z,76.18
2023-05-17T01:49:29.985Z,76.41
2023-05-17T01:50:29.964Z,76.44
2023-05-17T01:51:29.986Z,76.47
2023-05-17T01:52:29.940Z,76.12
2023-05-17T01:53:29.921Z,75.94
2023-05-17T01:54:29.923Z,76.16
2023-05-17T01:55:30.097Z,76.42
2023-05-17T01:56:29.902Z,76.37
2023-05-17T01:57:29.906Z,76.33
2023-05-17T01:58:29.896Z,76.02
2023-05-17T01:59:29.863Z,76.18
2023-05-17T02:00:29.911Z,76.51
2023-05-17T02:01:29.841Z,76.39
2023-05-17T02:02:29.839Z,76.38
2023-05-17T02:03:29.861Z,76.36
2023-05-17T02:04:29.813Z,76.30
2023-05-17T02:05:30.155Z,76.49
2023-05-17T02:06:29.768Z,76.68
2023-05-17T02:07:29.759Z,76.45
2023-05-17T02:08:29.739Z,76.58
2023-05-17T02:09:29.736Z,76.56
2023-05-17T02:10:29.726Z,76.09
2023-05-17T02:11:29.718Z,76.29
2023-05-17T02:12:29.708Z,76.51
2023-05-17T02:13:29.692Z,76.49
2023-05-17T02:14:29.671Z,76.64
2023-05-17T02:15:29.930Z,76.67
2023-05-17T02:16:29.638Z,76.84
2023-05-17T02:17:29.729Z,76.99
2023-05-17T02:18:29.668Z,76.63
2023-05-17T02:19:29.851Z,76.46
2023-05-17T02:20:29.606Z,76.62
2023-05-17T02:21:29.572Z,76.63
2023-05-17T02:22:29.582Z,76.88
2023-05-17T02:23:29.561Z,76.48
2023-05-17T02:24:29.556Z,76.61
2023-05-17T02:25:29.775Z,76.62
2023-05-17T02:26:29.544Z,76.53
2023-05-17T02:27:29.530Z,76.64
2023-05-17T02:28:29.504Z,76.85
2023-05-17T02:29:29.520Z,76.76
2023-05-17T02:30:29.530Z,76.58
2023-05-17T02:31:29.462Z,76.17
2023-05-17T02:32:29.550Z,76.02
2023-05-17T02:33:29.532Z,76.02
2023-05-17T02:34:29.443Z,76.42
2023-05-17T02:35:29.587Z,76.42
2023-05-17T02:36:29.392Z,76.72
2023-05-17T02:37:29.369Z,76.66
2023-05-17T02:38:29.395Z,76.58
2023-05-17T02:39:29.348Z,76.59
2023-05-17T02:40:29.353Z,76.45
2023-05-17T02:41:29.338Z,76.56
2023-05-17T02:42:29.332Z,76.49
2023-05-17T02:43:29.308Z,76.39
2023-05-17T02:44:29.298Z,76.43
2023-05-17T02:45:29.527Z,76.20
2023-05-17T02:46:29.262Z,76.15
2023-05-17T02:47:29.395Z,75.90
2023-05-17T02:48:29.275Z,75.94
2023-05-17T02:49:29.221Z,75.66
2023-05-17T02:50:29.223Z,75.75
2023-05-17T02:51:29.202Z,75.54
2023-05-17T02:52:29.193Z,75.58
2023-05-17T02:53:29.191Z,75.16
2023-05-17T02:54:29.160Z,75.20
2023-05-17T02:55:29.401Z,75.35
2023-05-17T02:56:29.129Z,75.35
2023-05-17T02:57:29.136Z,75.16
2023-05-17T02:58:29.115Z,75.18
2023-05-17T02:59:29.122Z,75.30
2023-05-17T03:00:29.080Z,75.48
2023-05-17T03:01:29.072Z,75.14
2023-05-17T03:02:29.224Z,75.00
2023-05-17T03:03:29.153Z,75.48
2023-05-17T03:04:29.062Z,74.98
2023-05-17T03:05:29.340Z,74.83
2023-05-17T03:06:29.017Z,74.91
2023-05-17T03:07:29.036Z,74.82
2023-05-17T03:08:29.006Z,74.96
2023-05-17T03:09:28.996Z,74.92
2023-05-17T03:10:28.984Z,74.86
2023-05-17T03:11:28.965Z,74.68
2023-05-17T03:12:29.663Z,74.44
2023-05-17T03:13:28.918Z,74.63
2023-05-17T03:14:28.921Z,74.85
2023-05-17T03:15:29.137Z,75.14
2023-05-17T03:16:28.882Z,74.89
2023-05-17T03:17:28.973Z,74.62
2023-05-17T03:18:29.484Z,73.97
2023-05-17T03:19:28.917Z,74.08
2023-05-17T03:20:28.863Z,74.21
2023-05-17T03:21:28.822Z,74.44
2023-05-17T03:22:28.817Z,74.50
2023-05-17T03:23:28.807Z,74.76
2023-05-17T03:24:28.799Z,74.65
2023-05-17T03:25:29.092Z,74.69
2023-05-17T03:26:28.767Z,74.67
2023-05-17T03:27:28.791Z,74.85
2023-05-17T03:28:28.744Z,74.46
2023-05-17T03:29:28.737Z,74.18
2023-05-17T03:30:28.722Z,74.46
2023-05-17T03:31:28.708Z,73.98
2023-05-17T03:32:28.726Z,73.58
2023-05-17T03:33:28.756Z,73.40
2023-05-17T03:34:28.669Z,73.08
2023-05-17T03:35:28.945Z,73.20
2023-05-17T03:36:28.665Z,73.30
2023-05-17T03:37:28.624Z,73.43
2023-05-17T03:38:28.600Z,73.56
2023-05-17T03:39:28.612Z,73.93
2023-05-17T03:40:28.600Z,74.21
2023-05-17T03:41:28.565Z,74.32
2023-05-17T03:42:28.550Z,74.03
2023-05-17T03:43:28.556Z,73.63
2023-05-17T03:44:28.536Z,73.64
2023-05-17T03:45:28.826Z,73.78
2023-05-17T03:46:28.534Z,73.27
2023-05-17T03:47:28.500Z,73.29
2023-05-17T03:48:28.525Z,73.32
2023-05-17T03:49:28.497Z,73.46
2023-05-17T03:50:28.469Z,73.27
2023-05-17T03:51:28.447Z,73.00
2023-05-17T03:52:28.424Z,73.40
2023-05-17T03:53:28.426Z,73.34
2023-05-17T03:54:28.403Z,73.09
2023-05-17T03:55:28.653Z,73.11
2023-05-17T03:56:28.390Z,73.32
2023-05-17T03:57:28.375Z,73.19
2023-05-17T03:58:28.364Z,73.26
2023-05-17T03:59:28.376Z,73.18
2023-05-17T04:00:28.425Z,73.14
2023-05-17T04:01:28.316Z,73.01
2023-05-17T04:02:28.348Z,72.79
2023-05-17T04:03:28.326Z,72.56
2023-05-17T04:04:28.435Z,72.69
2023-05-17T04:05:28.496Z,73.00
2023-05-17T04:06:28.261Z,73.00
2023-05-17T04:07:28.245Z,72.78
2023-05-17T04:08:28.230Z,72.70
2023-05-17T04:09:28.226Z,72.72
2023-05-17T04:10:28.215Z,72.52
2023-05-17T04:11:28.216Z,72.01
2023-05-17T04:12:28.187Z,72.08
2023-05-17T04:13:28.169Z,72.59
2023-05-17T04:14:28.159Z,72.16
2023-05-17T04:15:28.385Z,72.21
2023-05-17T04:16:28.144Z,72.45
2023-05-17T04:17:28.190Z,72.46
2023-05-17T04:18:28.106Z,72.34
2023-05-17T04:19:28.482Z,72.30
2023-05-17T04:20:28.102Z,72.53
2023-05-17T04:21:28.085Z,72.66
2023-05-17T04:22:28.063Z,72.65
2023-05-17T04:23:28.045Z,72.41
2023-05-17T04:24:28.044Z,72.89
2023-05-17T04:25:28.202Z,72.89
2023-05-17T04:26:28.015Z,72.89
2023-05-17T04:27:28.032Z,73.03
2023-05-17T04:28:28.001Z,72.83
2023-05-17T04:29:27.973Z,72.28
2023-05-17T04:30:28.013Z,71.75
2023-05-17T04:31:27.939Z,71.44
2023-05-17T04:32:27.974Z,71.35
2023-05-17T04:33:28.018Z,70.93
2023-05-17T04:34:27.903Z,71.50
2023-05-17T04:35:28.129Z,71.51
2023-05-17T04:36:27.887Z,71.93
2023-05-17T04:37:27.898Z,72.12
2023-05-17T04:38:27.861Z,72.34
2023-05-17T04:39:30.081Z,72.23
2023-05-17T04:40:27.845Z,71.67
2023-05-17T04:41:27.828Z,71.69
2023-05-17T04:42:27.820Z,71.63
2023-05-17T04:43:27.798Z,71.83
2023-05-17T04:44:27.778Z,71.92
2023-05-17T04:45:27.983Z,71.37
2023-05-17T04:46:27.801Z,70.84
2023-05-17T04:47:27.803Z,71.45
2023-05-17T04:48:27.910Z,71.49
2023-05-17T04:49:27.728Z,71.50
2023-05-17T04:50:27.707Z,71.70
2023-05-17T04:51:27.722Z,71.46
2023-05-17T04:52:27.695Z,71.48
2023-05-17T04:53:27.730Z,71.34
2023-05-17T04:54:27.665Z,71.28
2023-05-17T04:55:27.930Z,71.34
2023-05-17T04:56:27.643Z,70.93
2023-05-17T04:57:27.631Z,71.44
2023-05-17T04:58:27.601Z,71.26
2023-05-17T04:59:27.617Z,71.42
2023-05-17T05:00:27.608Z,71.48
2023-05-17T05:01:27.596Z,71.42
2023-05-17T05:02:27.595Z,71.48
2023-05-17T05:03:27.572Z,71.61
2023-05-17T05:04:27.574Z,71.35
2023-05-17T05:05:27.676Z,70.93
2023-05-17T05:06:27.517Z,71.04
2023-05-17T05:07:27.591Z,71.29
2023-05-17T05:08:27.494Z,71.34
2023-05-17T05:09:27.566Z,71.74
2023-05-17T05:10:27.463Z,72.03
2023-05-17T05:11:27.446Z,71.98
2023-05-17T05:12:27.441Z,71.65
2023-05-17T05:13:27.437Z,70.99
2023-05-17T05:14:27.413Z,71.29
2023-05-17T05:15:27.634Z,71.50
2023-05-17T05:16:27.386Z,71.68
2023-05-17T05:17:27.451Z,71.78
2023-05-17T05:18:27.499Z,71.73
2023-05-17T05:19:27.368Z,71.29
2023-05-17T05:20:28.252Z,71.05
2023-05-17T05:21:27.360Z,70.79
2023-05-17T05:22:27.326Z,70.75
2023-05-17T05:23:27.303Z,70.90
2023-05-17T05:24:27.346Z,70.59
2023-05-17T05:25:27.410Z,70.04
2023-05-17T05:26:27.268Z,70.00
2023-05-17T05:27:27.257Z,70.00
2023-05-17T05:28:27.248Z,70.33
2023-05-17T05:29:27.236Z,70.22
2023-05-17T05:30:27.211Z,69.77
2023-05-17T05:31:27.245Z,70.15
2023-05-17T05:32:27.240Z,70.33
2023-05-17T05:33:27.338Z,70.38
2023-05-17T05:34:27.155Z,70.40
2023-05-17T05:35:27.235Z,70.45
2023-05-17T05:36:27.163Z,69.85
2023-05-17T05:37:27.171Z,69.98
2023-05-17T05:38:27.124Z,70.07
2023-05-17T05:39:27.120Z,69.76
2023-05-17T05:40:27.211Z,69.75
2023-05-17T05:41:27.112Z,69.33
2023-05-17T05:42:27.062Z,69.65
2023-05-17T05:43:27.074Z,69.57
2023-05-17T05:44:27.046Z,69.81
2023-05-17T05:45:27.054Z,69.83
2023-05-17T05:46:27.034Z,69.84
2023-05-17T05:47:27.010Z,69.66
2023-05-17T05:48:27.078Z,69.85
2023-05-17T05:49:26.985Z,70.23
2023-05-17T05:50:27.198Z,69.73
2023-05-17T05:51:26.980Z,69.58
2023-05-17T05:52:26.950Z,69.69
2023-05-17T05:53:26.942Z,69.93
2023-05-17T05:54:27.032Z,69.61
2023-05-17T05:55:26.906Z,69.75
2023-05-17T05:56:26.905Z,69.85
2023-05-17T05:57:26.906Z,69.39
2023-05-17T05:58:26.896Z,69.63
2023-05-17T05:59:26.866Z,69.75
2023-05-17T06:00:26.984Z,69.62
2023-05-17T06:01:26.854Z,69.89
2023-05-17T06:02:26.869Z,70.13
2023-05-17T06:03:26.816Z,69.88
2023-05-17T06:04:33.108Z,69.62
2023-05-17T06:05:26.860Z,69.81
2023-05-17T06:06:26.819Z,70.12
2023-05-17T06:07:26.814Z,70.43
2023-05-17T06:08:26.752Z,70.65
2023-05-17T06:09:26.730Z,71.07
2023-05-17T06:10:26.841Z,71.31
2023-05-17T06:11:26.711Z,71.41
2023-05-17T06:12:27.631Z,71.28
2023-05-17T06:13:26.702Z,71.54
2023-05-17T06:14:26.664Z,71.13
2023-05-17T06:15:26.681Z,70.55
2023-05-17T06:16:26.663Z,69.87
2023-05-17T06:17:26.730Z,70.17
2023-05-17T06:18:26.775Z,69.81
2023-05-17T06:19:26.772Z,69.77
2023-05-17T06:20:26.739Z,69.74
2023-05-17T06:21:26.604Z,69.27
2023-05-17T06:22:26.562Z,69.53
2023-05-17T06:23:26.573Z,69.81
2023-05-17T06:24:26.536Z,70.06
2023-05-17T06:25:26.543Z,70.00
2023-05-17T06:26:26.538Z,70.27
2023-05-17T06:27:26.529Z,70.54
2023-05-17T06:28:26.517Z,70.53
2023-05-17T06:29:26.485Z,70.24
2023-05-17T06:30:26.500Z,70.27
2023-05-17T06:31:26.474Z,70.50
2023-05-17T06:32:26.494Z,70.25
2023-05-17T06:33:26.516Z,69.82
2023-05-17T06:34:26.411Z,69.94
2023-05-17T06:35:26.546Z,69.91
2023-05-17T06:36:26.414Z,70.24
2023-05-17T06:37:26.514Z,70.41
2023-05-17T06:38:26.380Z,69.94
2023-05-17T06:39:26.377Z,69.78
2023-05-17T06:40:26.349Z,69.66
2023-05-17T06:41:26.366Z,69.40
2023-05-17T06:42:26.360Z,69.55
2023-05-17T06:43:26.298Z,69.86
2023-05-17T06:44:26.301Z,69.54
2023-05-17T06:45:26.297Z,69.08
2023-05-17T06:46:26.446Z,68.90
2023-05-17T06:47:26.317Z,69.04
2023-05-17T06:48:26.410Z,69.32
2023-05-17T06:49:26.257Z,69.12
2023-05-17T06:50:26.355Z,69.16
2023-05-17T06:51:26.224Z,69.26
2023-05-17T06:52:27.312Z,69.29
2023-05-17T06:53:26.192Z,69.09
2023-05-17T06:54:26.192Z,69.07
2023-05-17T06:55:26.153Z,68.58
2023-05-17T06:56:26.165Z,68.22
2023-05-17T06:57:26.135Z,68.86
2023-05-17T06:58:26.126Z,68.88
2023-05-17T06:59:26.112Z,69.40
2023-05-17T07:00:26.152Z,69.74
2023-05-17T07:01:26.086Z,69.70
2023-05-17T07:02:26.091Z,69.53
2023-05-17T07:03:26.091Z,69.58
2023-05-17T07:04:26.156Z,69.30
2023-05-17T07:05:26.139Z,69.07
2023-05-17T07:06:26.034Z,69.11
2023-05-17T07:07:26.120Z,69.39
2023-05-17T07:08:26.012Z,69.38
2023-05-17T07:09:26.027Z,69.72
2023-05-17T07:10:25.985Z,70.03
2023-05-17T07:11:26.046Z,69.70
2023-05-17T07:12:25.993Z,69.56
2023-05-17T07:13:25.975Z,69.55
2023-05-17T07:14:26.050Z,69.28
2023-05-17T07:15:25.938Z,69.44
2023-05-17T07:16:25.927Z,69.43
2023-05-17T07:17:25.931Z,69.15
2023-05-17T07:18:26.021Z,68.97
2023-05-17T07:19:26.106Z,69.07
2023-05-17T07:20:25.928Z,69.24
2023-05-17T07:21:25.869Z,69.04
2023-05-17T07:22:25.840Z,68.86
2023-05-17T07:23:25.824Z,68.85
2023-05-17T07:24:25.827Z,69.18
2023-05-17T07:25:25.904Z,69.07
2023-05-17T07:26:25.784Z,69.38
2023-05-17T07:27:25.794Z,69.63
2023-05-17T07:28:25.778Z,69.35
2023-05-17T07:29:25.738Z,68.72
2023-05-17T07:30:25.794Z,68.66
2023-05-17T07:31:25.730Z,69.25
2023-05-17T07:32:25.746Z,69.55
2023-05-17T07:33:25.703Z,68.97
2023-05-17T07:34:25.705Z,68.70
2023-05-17T07:35:25.686Z,68.60
2023-05-17T07:36:25.727Z,68.81
2023-05-17T07:37:25.644Z,68.53
2023-05-17T07:38:25.641Z,68.05
2023-05-17T07:39:25.635Z,68.20
2023-05-17T07:40:25.685Z,68.21
2023-05-17T07:41:25.605Z,68.38
2023-05-17T07:42:25.608Z,68.41
2023-05-17T07:43:25.614Z,69.02
2023-05-17T07:44:25.571Z,68.05
2023-05-17T07:45:26.162Z,66.95
2023-05-17T07:46:25.585Z,66.64
2023-05-17T07:47:25.610Z,66.75
2023-05-17T07:48:25.561Z,65.99
2023-05-17T07:49:25.673Z,66.31
2023-05-17T07:50:25.631Z,66.51
2023-05-17T07:51:25.485Z,66.24
2023-05-17T07:52:25.726Z,66.00
2023-05-17T07:53:25.462Z,65.54
2023-05-17T07:54:25.471Z,65.67
2023-05-17T07:55:25.531Z,65.48
2023-05-17T07:56:25.430Z,65.74
2023-05-17T07:57:25.407Z,66.28
2023-05-17T07:58:25.403Z,66.84
2023-05-17T07:59:25.391Z,67.05
2023-05-17T08:00:25.600Z,66.85
2023-05-17T08:01:25.373Z,66.51
2023-05-17T08:02:25.363Z,66.48
2023-05-17T08:03:25.383Z,66.41
2023-05-17T08:04:25.357Z,66.49
2023-05-17T08:05:25.337Z,66.74
2023-05-17T08:06:25.383Z,66.50
2023-05-17T08:07:25.306Z,66.56
2023-05-17T08:08:25.279Z,66.82
2023-05-17T08:09:25.276Z,67.06
2023-05-17T08:10:25.264Z,67.28
2023-05-17T08:11:25.273Z,67.75
2023-05-17T08:12:25.297Z,67.34
2023-05-17T08:13:25.253Z,67.31
2023-05-17T08:14:25.211Z,67.12
2023-05-17T08:15:25.201Z,66.75
2023-05-17T08:16:25.223Z,66.88
2023-05-17T08:17:25.235Z,67.14
2023-05-17T08:18:25.243Z,67.30
2023-05-17T08:19:25.246Z,66.64
2023-05-17T08:21:31.680Z,65.38
2023-05-17T08:22:25.160Z,65.36
2023-05-17T08:23:25.101Z,65.49
2023-05-17T08:24:25.115Z,65.76
2023-05-17T08:25:25.094Z,65.51
2023-05-17T08:26:25.082Z,64.92
2023-05-17T08:27:25.055Z,65.09
2023-05-17T08:28:25.048Z,65.51
2023-05-17T08:29:25.044Z,65.25
2023-05-17T08:31:25.029Z,65.33
2023-05-17T08:32:25.034Z,66.27
2023-05-17T08:33:25.166Z,65.41
2023-05-17T08:34:25.000Z,65.05
2023-05-17T08:35:26.889Z,65.46
2023-05-17T08:36:24.990Z,66.21
2023-05-17T08:37:24.976Z,66.37
2023-05-17T08:38:24.961Z,65.67
2023-05-17T08:39:24.905Z,65.26
2023-05-17T08:40:24.964Z,64.96
2023-05-17T08:41:24.898Z,64.51
2023-05-17T08:42:24.876Z,64.60
2023-05-17T08:43:26.836Z,64.83
2023-05-17T08:44:24.852Z,64.87
2023-05-17T08:45:24.833Z,65.46
2023-05-17T08:46:24.857Z,65.85
2023-05-17T08:47:24.862Z,66.19
2023-05-17T08:48:24.937Z,66.09
2023-05-17T08:49:24.861Z,65.54
2023-05-17T08:50:24.809Z,65.75
2023-05-17T08:51:24.790Z,65.60
2023-05-17T08:52:24.757Z,65.34
2023-05-17T08:53:24.787Z,65.68
2023-05-17T08:54:24.752Z,65.70
2023-05-17T08:55:24.740Z,66.40
2023-05-17T08:56:24.707Z,66.19
2023-05-17T08:57:24.699Z,65.94
2023-05-17T08:58:24.700Z,65.68
2023-05-17T08:59:24.684Z,65.42
2023-05-17T09:00:24.652Z,66.01
2023-05-17T09:01:26.443Z,65.44
2023-05-17T09:02:24.745Z,65.21
2023-05-17T09:03:24.822Z,65.00
2023-05-17T09:04:24.646Z,64.89
2023-05-17T09:05:24.631Z,64.91
2023-05-17T09:06:24.588Z,64.19
2023-05-17T09:07:24.590Z,64.73
2023-05-17T09:08:24.594Z,64.50
2023-05-17T09:09:24.541Z,64.86
2023-05-17T09:10:24.535Z,65.19
2023-05-17T09:11:24.533Z,65.17
2023-05-17T09:12:25.777Z,65.51
2023-05-17T09:13:24.529Z,65.85
2023-05-17T09:14:24.889Z,65.63
2023-05-17T09:15:24.485Z,65.88
2023-05-17T09:16:24.546Z,65.72
2023-05-17T09:17:24.482Z,65.49
2023-05-17T09:18:24.518Z,65.32
2023-05-17T09:19:24.613Z,65.02
2023-05-17T09:20:24.504Z,63.98
2023-05-17T09:21:24.441Z,63.86
2023-05-17T09:22:24.424Z,63.53
2023-05-17T09:23:24.397Z,64.34
2023-05-17T09:24:25.194Z,64.59
2023-05-17T09:25:24.382Z,64.88
2023-05-17T09:26:24.338Z,64.10
2023-05-17T09:27:24.373Z,63.85
2023-05-17T09:28:24.332Z,63.73
2023-05-17T09:29:24.301Z,64.00
2023-05-17T09:30:25.181Z,63.90
2023-05-17T09:31:24.274Z,63.97
2023-05-17T09:32:24.329Z,63.28
2023-05-17T09:33:24.325Z,63.50
2023-05-17T09:34:24.249Z,63.62
2023-05-17T09:35:24.241Z,63.68
2023-05-17T09:36:24.344Z,63.52
2023-05-17T09:37:24.213Z,63.73
2023-05-17T09:38:25.402Z,62.81
2023-05-17T09:39:24.183Z,62.83
2023-05-17T09:40:24.251Z,62.80
2023-05-17T09:41:24.322Z,63.17
2023-05-17T09:42:24.169Z,63.65
2023-05-17T09:43:24.145Z,63.41
2023-05-17T09:44:25.320Z,64.58
2023-05-17T09:45:24.108Z,65.03
2023-05-17T09:46:24.093Z,63.70
2023-05-17T09:47:24.128Z,63.12
2023-05-17T09:48:24.224Z,63.41
2023-05-17T09:49:24.055Z,63.08
2023-05-17T09:50:26.087Z,61.94
2023-05-17T09:51:24.032Z,62.21
2023-05-17T09:52:24.048Z,62.67
2023-05-17T09:53:24.002Z,62.27
2023-05-17T09:54:24.013Z,62.31
2023-05-17T09:55:24.006Z,62.66
2023-05-17T09:56:23.990Z,62.42
2023-05-17T09:57:23.963Z,63.43
2023-05-17T09:58:23.993Z,63.21
2023-05-17T09:59:23.928Z,61.67
2023-05-17T10:00:23.948Z,61.39
2023-05-17T10:01:23.907Z,61.14
2023-05-17T10:02:23.949Z,61.39
2023-05-17T10:03:24.089Z,62.20
2023-05-17T10:04:23.862Z,61.26
2023-05-17T10:05:23.873Z,61.55
2023-05-17T10:06:39.040Z,61.50
2023-05-17T10:07:23.864Z,61.38
2023-05-17T10:08:23.824Z,62.20
2023-05-17T10:09:23.799Z,61.12
2023-05-17T10:10:23.808Z,61.09
2023-05-17T10:11:23.768Z,60.40
2023-05-17T10:12:25.429Z,60.98
2023-05-17T10:13:23.753Z,61.18
2023-05-17T10:14:23.762Z,61.13
2023-05-17T10:15:23.710Z,60.70
2023-05-17T10:16:23.710Z,60.61
2023-05-17T10:17:23.686Z,60.43
2023-05-17T10:18:23.833Z,60.63
2023-05-17T10:19:23.735Z,61.36
2023-05-17T10:20:23.652Z,63.98
2023-05-17T10:21:23.681Z,68.19
2023-05-17T10:22:24.106Z,70.89
2023-05-17T10:23:23.642Z,71.68
2023-05-17T10:24:23.606Z,73.38
2023-05-17T10:25:23.594Z,74.01
2023-05-17T10:26:23.572Z,74.20
2023-05-17T10:27:23.569Z,73.94
2023-05-17T10:28:23.582Z,74.41
2023-05-17T10:29:23.525Z,74.79
2023-05-17T10:30:23.512Z,74.68
2023-05-17T10:31:23.506Z,73.28
2023-05-17T10:32:23.760Z,73.07
2023-05-17T10:33:23.575Z,73.68
2023-05-17T10:34:23.507Z,74.01
2023-05-17T10:35:23.514Z,72.96
2023-05-17T10:36:23.474Z,73.01
2023-05-17T10:37:23.433Z,73.05
2023-05-17T10:38:26.302Z,73.59
2023-05-17T10:39:23.409Z,73.95
2023-05-17T10:40:23.391Z,72.60
2023-05-17T10:41:23.410Z,70.27
2023-05-17T10:42:23.384Z,71.14
2023-05-17T10:43:23.354Z,71.93
2023-05-17T10:44:23.362Z,71.24
2023-05-17T10:45:23.336Z,71.69
2023-05-17T10:46:23.333Z,70.44
2023-05-17T10:47:23.383Z,70.57
2023-05-17T10:48:23.376Z,71.43
2023-05-17T10:49:24.746Z,69.06
2023-05-17T10:50:23.294Z,67.33
2023-05-17T10:51:23.265Z,67.39
2023-05-17T10:52:23.263Z,67.79
2023-05-17T10:53:23.248Z,68.46
2023-05-17T10:54:23.239Z,70.19
2023-05-17T10:55:23.228Z,68.38
2023-05-17T10:56:23.221Z,68.70
2023-05-17T10:57:23.200Z,69.53
2023-05-17T10:58:23.164Z,67.43
2023-05-17T10:59:23.281Z,68.14
2023-05-17T11:00:23.157Z,68.79
2023-05-17T11:01:23.134Z,69.04
2023-05-17T11:02:23.190Z,69.46
2023-05-17T11:03:23.145Z,69.36
2023-05-17T11:04:23.150Z,68.02
2023-05-17T11:05:23.135Z,67.84
2023-05-17T11:06:24.889Z,68.73
2023-05-17T11:07:23.059Z,68.09
2023-05-17T11:08:23.050Z,68.19
2023-05-17T11:09:23.074Z,68.40
2023-05-17T11:10:23.057Z,67.47
2023-05-17T11:11:23.036Z,68.06
2023-05-17T11:12:23.001Z,67.89
2023-05-17T11:13:22.998Z,67.69
2023-05-17T11:14:22.987Z,67.54
2023-05-17T11:15:22.984Z,68.14
2023-05-17T11:16:22.955Z,68.46
2023-05-17T11:17:22.966Z,68.60
2023-05-17T11:18:30.038Z,69.40
2023-05-17T11:19:23.080Z,67.12
2023-05-17T11:20:22.992Z,66.96
2023-05-17T11:21:22.914Z,64.65
2023-05-17T11:22:22.880Z,64.51
2023-05-17T11:23:22.872Z,65.82
2023-05-17T11:24:22.874Z,66.46
2023-05-17T11:25:22.874Z,65.44
2023-05-17T11:26:22.847Z,66.20
2023-05-17T11:27:22.821Z,65.20
2023-05-17T11:28:22.837Z,64.87
2023-05-17T11:29:22.807Z,63.57
2023-05-17T11:30:22.809Z,65.77
2023-05-17T11:31:22.769Z,63.44
2023-05-17T11:32:22.819Z,62.14
2023-05-17T11:33:32.772Z,62.62
2023-05-17T11:34:22.781Z,65.06
2023-05-17T11:35:22.777Z,63.64
2023-05-17T11:36:22.705Z,64.31
2023-05-17T11:37:22.693Z,63.09
2023-05-17T11:38:22.672Z,63.68
2023-05-17T11:39:22.666Z,64.73
2023-05-17T11:40:22.674Z,65.50
2023-05-17T11:41:26.907Z,63.94
2023-05-17T11:42:22.636Z,60.50
2023-05-17T11:43:22.622Z,64.24
2023-05-17T11:44:22.598Z,64.27
2023-05-17T11:45:24.790Z,64.68
2023-05-17T11:46:22.604Z,64.33
2023-05-17T11:47:22.756Z,64.87
2023-05-17T11:48:22.765Z,65.61
2023-05-17T11:49:34.387Z,65.55
2023-05-17T11:50:22.629Z,65.99
2023-05-17T11:51:24.871Z,66.03
2023-05-17T11:52:22.504Z,65.07
2023-05-17T11:53:22.490Z,65.22
2023-05-17T11:54:22.471Z,64.88
2023-05-17T11:55:22.517Z,64.79
2023-05-17T11:56:29.023Z,64.68
2023-05-17T11:57:22.442Z,63.49
2023-05-17T11:58:22.421Z,63.34
2023-05-17T11:59:22.405Z,64.01
2023-05-17T12:00:22.397Z,65.28
2023-05-17T12:01:22.396Z,63.85
2023-05-17T12:02:22.395Z,62.31
2023-05-17T12:03:22.365Z,63.93
2023-05-17T12:04:22.374Z,63.48
2023-05-17T12:05:22.332Z,63.76
2023-05-17T12:06:22.321Z,63.06
2023-05-17T12:07:22.299Z,63.87
2023-05-17T12:08:22.280Z,63.73
2023-05-17T12:09:22.309Z,62.84
2023-05-17T12:10:22.248Z,62.88
2023-05-17T12:11:22.254Z,63.08
2023-05-17T12:12:22.229Z,61.47
2023-05-17T12:13:22.244Z,61.90
2023-05-17T12:14:22.223Z,63.53
2023-05-17T12:15:22.188Z,63.31
2023-05-17T12:16:22.214Z,64.17
2023-05-17T12:17:22.160Z,64.69
2023-05-17T12:18:22.200Z,64.36
2023-05-17T12:19:22.279Z,63.75
2023-05-17T12:20:22.176Z,64.01
2023-05-17T12:21:22.117Z,64.01
2023-05-17T12:22:22.112Z,61.61
2023-05-17T12:23:22.097Z,62.59
2023-05-17T12:24:22.139Z,63.29
2023-05-17T12:25:22.060Z,63.39
2023-05-17T12:26:22.056Z,63.16
2023-05-17T12:27:22.046Z,62.86
2023-05-17T12:28:22.078Z,61.51
2023-05-17T12:29:22.005Z,61.53
2023-05-17T12:30:21.985Z,63.67
2023-05-17T12:31:21.980Z,63.21
2023-05-17T12:32:21.970Z,62.92
2023-05-17T12:33:22.046Z,62.27
2023-05-17T12:34:21.944Z,61.99
2023-05-17T12:35:21.928Z,61.07
2023-05-17T12:36:21.903Z,61.18
2023-05-17T12:37:21.923Z,62.40
2023-05-17T12:38:21.899Z,61.21
2023-05-17T12:39:21.881Z,61.77
2023-05-17T12:40:21.851Z,61.53
2023-05-17T12:41:21.849Z,61.12
2023-05-17T12:42:21.840Z,59.57
2023-05-17T12:43:21.818Z,61.04
2023-05-17T12:44:21.807Z,61.97
2023-05-17T12:45:21.791Z,60.89
2023-05-17T12:46:21.776Z,60.38
2023-05-17T12:47:21.782Z,61.64
2023-05-17T12:48:21.797Z,62.23
2023-05-17T12:49:21.739Z,62.52
2023-05-17T12:50:21.723Z,61.83
2023-05-17T12:51:21.725Z,62.90
2023-05-17T12:52:21.714Z,62.27
2023-05-17T12:53:21.694Z,61.26
2023-05-17T12:54:21.690Z,60.10